Time;durP1;ratioP1;P1;durP2;ratioP2;P2;SDS_P1;SDS_P2;PMS_P1;PMS_P2;Temp;Humidity;BMP_temperature;BMP_pressure;BME280_temperature;BME280_humidity;BME280_pressure;Samples;Min_cycle;Max_cycle;Signal;HPM_P1;HPM_P2
2022/12/14 00:01:53;;;;;;;0.30;0.30;;;;;;;;;;4177253;28;20103;-38
2022/12/14 00:03:54;;;;;;;0.40;0.40;;;;;;;;;;4195204;28;20095;-38
2022/12/14 00:05:56;;;;;;;0.57;0.40;;;;;;;;;;4194945;28;20055;-37
2022/12/14 00:07:57;;;;;;;0.32;0.25;;;;;;;;;;4194846;28;20437;-38
2022/12/14 00:09:58;;;;;;;0.40;0.30;;;;;;;;;;4194637;28;20099;-38
2022/12/14 00:11:59;;;;;;;0.47;0.30;;;;;;;;;;4195150;28;20380;-38
2022/12/14 00:14:01;;;;;;;0.40;0.30;;;;;;;;;;4208737;28;20056;-39
2022/12/14 00:16:05;;;;;;;0.28;0.28;;;;;;;;;;4195120;28;20056;-37
2022/12/14 00:18:06;;;;;;;0.30;0.30;;;;;;;;;;4194752;28;20052;-37
2022/12/14 00:20:08;;;;;;;0.77;0.47;;;;;;;;;;4194839;28;20102;-38
2022/12/14 00:22:09;;;;;;;0.88;0.40;;;;;;;;;;4194971;28;20110;-38
2022/12/14 00:24:11;;;;;;;0.50;0.30;;;;;;;;;;4194374;28;20072;-38
2022/12/14 00:26:14;;;;;;;0.50;0.30;;;;;;;;;;4176920;28;20080;-38
2022/12/14 00:28:16;;;;;;;0.50;0.40;;;;;;;;;;4194846;28;20052;-38
2022/12/14 00:30:19;;;;;;;0.30;0.30;;;;;;;;;;4195007;28;20106;-38
2022/12/14 00:32:20;;;;;;;0.43;0.30;;;;;;;;;;4194473;28;20053;-38
2022/12/14 00:34:21;;;;;;;0.40;0.30;;;;;;;;;;4194835;28;20436;-38
2022/12/14 00:36:22;;;;;;;0.52;0.40;;;;;;;;;;4194866;28;20052;-38
2022/12/14 00:38:24;;;;;;;0.75;0.30;;;;;;;;;;4194421;28;20044;-38
2022/12/14 00:40:25;;;;;;;0.30;0.30;;;;;;;;;;4194654;28;20101;-38
2022/12/14 00:42:27;;;;;;;0.50;0.40;;;;;;;;;;4195107;28;20048;-38
2022/12/14 00:44:28;;;;;;;0.85;0.50;;;;;;;;;;4194617;28;20411;-38
2022/12/14 00:46:29;;;;;;;0.80;0.30;;;;;;;;;;4194392;28;20056;-38
2022/12/14 00:48:31;;;;;;;0.40;0.30;;;;;;;;;;4182095;28;20098;-38
2022/12/14 00:50:32;;;;;;;0.25;0.25;;;;;;;;;;4194828;28;20052;-38
2022/12/14 00:52:33;;;;;;;0.45;0.40;;;;;;;;;;4194719;28;20411;-38
2022/12/14 00:54:35;;;;;;;0.30;0.30;;;;;;;;;;4194159;28;20098;-38
2022/12/14 00:56:36;;;;;;;0.30;0.30;;;;;;;;;;4176325;28;20057;-38
2022/12/14 00:58:38;;;;;;;0.40;0.30;;;;;;;;;;4209834;28;20468;-42
2022/12/14 01:00:39;;;;;;;1.05;0.40;;;;;;;;;;4179921;28;20460;-38
2022/12/14 01:02:40;;;;;;;0.60;0.30;;;;;;;;;;4197380;28;20056;-38
2022/12/14 01:04:42;;;;;;;0.28;0.25;;;;;;;;;;4197581;28;20080;-38
2022/12/14 01:06:46;;;;;;;0.38;0.30;;;;;;;;;;4197208;28;20556;-38
2022/12/14 01:08:48;;;;;;;0.43;0.30;;;;;;;;;;4196861;28;20075;-38
2022/12/14 01:10:50;;;;;;;0.70;0.47;;;;;;;;;;4205966;28;20052;-38
2022/12/14 01:12:52;;;;;;;0.20;0.20;;;;;;;;;;4202383;28;20130;-38
2022/12/14 01:14:53;;;;;;;0.52;0.40;;;;;;;;;;4197292;28;20109;-38
2022/12/14 01:16:54;;;;;;;0.35;0.30;;;;;;;;;;4197367;28;20458;-38
2022/12/14 01:18:56;;;;;;;0.73;0.50;;;;;;;;;;4197450;28;20048;-38
2022/12/14 01:21:09;;;;;;;0.30;0.20;;;;;;;;;;4179338;28;20060;-38
2022/12/14 01:23:10;;;;;;;0.30;0.25;;;;;;;;;;4196997;28;20457;-38
2022/12/14 01:25:12;;;;;;;0.45;0.40;;;;;;;;;;4196898;28;20288;-38
2022/12/14 01:27:13;;;;;;;0.20;0.20;;;;;;;;;;4197497;28;20071;-38
2022/12/14 01:29:15;;;;;;;0.75;0.40;;;;;;;;;;4197226;28;20052;-38
2022/12/14 01:31:18;;;;;;;0.43;0.28;;;;;;;;;;4196929;28;20048;-38
2022/12/14 01:33:19;;;;;;;0.52;0.30;;;;;;;;;;4197104;28;20053;-38
2022/12/14 01:35:21;;;;;;;0.38;0.30;;;;;;;;;;4204730;28;20170;-38
2022/12/14 01:37:22;;;;;;;0.85;0.50;;;;;;;;;;4202951;28;20138;-38
2022/12/14 01:39:23;;;;;;;0.52;0.30;;;;;;;;;;4196143;28;20060;-38
2022/12/14 01:41:26;;;;;;;0.63;0.40;;;;;;;;;;4197171;28;20105;-38
2022/12/14 01:43:52;;;;;;;0.98;0.60;;;;;;;;;;4196943;28;20048;-38
2022/12/14 01:45:54;;;;;;;0.75;0.50;;;;;;;;;;4196656;28;20125;-39
2022/12/14 01:48:00;;;;;;;0.52;0.40;;;;;;;;;;4182138;28;20056;-38
2022/12/14 01:50:15;;;;;;;0.30;0.30;;;;;;;;;;4206721;28;20110;-38
2022/12/14 01:52:29;;;;;;;0.40;0.30;;;;;;;;;;4197120;28;20078;-37
2022/12/14 01:54:32;;;;;;;0.38;0.38;;;;;;;;;;4199286;28;20052;-38
2022/12/14 01:56:34;;;;;;;0.50;0.40;;;;;;;;;;4207040;28;20407;-38
2022/12/14 01:58:36;;;;;;;0.70;0.30;;;;;;;;;;4196873;28;20068;-37
2022/12/14 02:00:37;;;;;;;0.40;0.30;;;;;;;;;;4178912;28;20053;-38
2022/12/14 02:02:46;;;;;;;0.40;0.30;;;;;;;;;;4210123;28;20063;-38
2022/12/14 02:04:55;;;;;;;0.98;0.40;;;;;;;;;;4196441;28;20063;-38
2022/12/14 02:06:56;;;;;;;0.63;0.32;;;;;;;;;;4195570;28;20106;-38
2022/12/14 02:08:58;;;;;;;0.60;0.40;;;;;;;;;;4196090;28;20056;-38
2022/12/14 02:11:00;;;;;;;0.35;0.25;;;;;;;;;;4209589;28;20053;-38
2022/12/14 02:13:08;;;;;;;0.45;0.30;;;;;;;;;;4196543;28;20472;-38
2022/12/14 02:15:11;;;;;;;0.30;0.30;;;;;;;;;;4178627;28;20064;-38
2022/12/14 02:17:13;;;;;;;0.30;0.30;;;;;;;;;;4180888;28;20118;-38
2022/12/14 02:19:15;;;;;;;0.43;0.30;;;;;;;;;;4200011;28;20093;-38
2022/12/14 02:21:18;;;;;;;0.90;0.40;;;;;;;;;;4205976;28;20418;-38
2022/12/14 02:23:41;;;;;;;0.60;0.20;;;;;;;;;;4196281;28;20389;-38
2022/12/14 02:26:03;;;;;;;0.50;0.30;;;;;;;;;;4210213;28;20132;-38
2022/12/14 02:28:15;;;;;;;0.40;0.30;;;;;;;;;;4198848;28;20051;-38
2022/12/14 02:30:18;;;;;;;0.40;0.40;;;;;;;;;;4181484;28;20066;-38
2022/12/14 02:32:42;;;;;;;0.35;0.28;;;;;;;;;;4196124;28;20064;-38
2022/12/14 02:35:06;;;;;;;0.50;0.35;;;;;;;;;;4161467;28;20516;-38
2022/12/14 02:37:16;;;;;;;0.17;0.17;;;;;;;;;;4178919;28;20079;-38
2022/12/14 02:39:31;;;;;;;0.65;0.40;;;;;;;;;;4177989;28;20095;-38
2022/12/14 02:42:12;;;;;;;0.68;0.32;;;;;;;;;;4189833;28;20064;-38
2022/12/14 02:44:58;;;;;;;0.63;0.40;;;;;;;;;;4128302;28;20054;-38
2022/12/14 02:47:27;;;;;;;0.32;0.30;;;;;;;;;;4190295;28;20506;-38
2022/12/14 02:49:43;;;;;;;0.30;0.30;;;;;;;;;;4185378;28;20049;-38
2022/12/14 02:52:04;;;;;;;0.20;0.20;;;;;;;;;;4195500;28;20098;-38
2022/12/14 02:54:12;;;;;;;0.35;0.35;;;;;;;;;;4177563;28;20049;-38
2022/12/14 02:56:17;;;;;;;0.40;0.40;;;;;;;;;;4195705;28;20098;-38
2022/12/14 02:58:39;;;;;;;0.40;0.30;;;;;;;;;;4195269;28;20468;-38
2022/12/14 03:00:40;;;;;;;0.40;0.40;;;;;;;;;;4177827;28;20123;-38
2022/12/14 03:02:42;;;;;;;0.28;0.28;;;;;;;;;;4195768;28;20060;-38
2022/12/14 03:04:48;;;;;;;0.50;0.32;;;;;;;;;;4177224;28;20102;-38
2022/12/14 03:06:59;;;;;;;0.60;0.30;;;;;;;;;;4199288;28;20059;-38
2022/12/14 03:09:12;;;;;;;0.40;0.40;;;;;;;;;;4203291;28;20049;-38
2022/12/14 03:11:18;;;;;;;0.50;0.40;;;;;;;;;;4208853;28;20063;-40
2022/12/14 03:13:38;;;;;;;0.43;0.30;;;;;;;;;;4177600;28;20453;-38
2022/12/14 03:15:39;;;;;;;;;;;;;;;;;;4178115;28;20119;-38
2022/12/14 03:17:42;;;;;;;0.43;0.32;;;;;;;;;;4177602;28;19921;-38
2022/12/14 03:19:49;;;;;;;0.52;0.30;;;;;;;;;;4177235;28;20083;-38
2022/12/14 03:21:53;;;;;;;0.35;0.30;;;;;;;;;;4177619;28;20103;-38
2022/12/14 03:23:55;;;;;;;0.43;0.30;;;;;;;;;;4177066;28;20432;-38
2022/12/14 03:26:32;;;;;;;0.30;0.30;;;;;;;;;;4195494;28;20056;-38
2022/12/14 03:28:42;;;;;;;0.43;0.38;;;;;;;;;;4127640;28;20462;-38
2022/12/14 03:30:48;;;;;;;0.47;0.40;;;;;;;;;;4170039;28;20048;-38
2022/12/14 03:32:53;;;;;;;0.57;0.30;;;;;;;;;;4177223;28;20064;-38
2022/12/14 03:35:01;;;;;;;0.22;0.22;;;;;;;;;;4177335;28;20483;-38
2022/12/14 03:37:10;;;;;;;0.50;0.40;;;;;;;;;;4195221;28;20056;-38
2022/12/14 03:39:16;;;;;;;0.20;0.20;;;;;;;;;;4194960;28;20112;-38
2022/12/14 03:41:30;;;;;;;0.60;0.50;;;;;;;;;;4180648;28;20063;-38
2022/12/14 03:44:03;;;;;;;0.52;0.30;;;;;;;;;;4193631;28;20416;-38
2022/12/14 03:46:14;;;;;;;0.50;0.30;;;;;;;;;;4170470;28;20461;-38
2022/12/14 03:48:36;;;;;;;0.90;0.50;;;;;;;;;;4178418;28;20064;-38
2022/12/14 03:50:48;;;;;;;0.30;0.30;;;;;;;;;;4186547;28;20048;-38
2022/12/14 03:53:00;;;;;;;0.32;0.28;;;;;;;;;;4180028;28;20052;-38
2022/12/14 03:55:21;;;;;;;0.30;0.30;;;;;;;;;;4194917;28;20059;-38
2022/12/14 03:57:41;;;;;;;0.32;0.30;;;;;;;;;;4187762;28;20200;-38
2022/12/14 03:59:46;;;;;;;;;;;;;;;;;;4195207;28;20063;-38
2022/12/14 04:01:53;;;;;;;0.40;0.32;;;;;;;;;;4201353;28;19935;-37
2022/12/14 04:03:55;;;;;;;0.40;0.30;;;;;;;;;;4201403;28;20096;-38
2022/12/14 04:06:18;;;;;;;0.93;0.40;;;;;;;;;;4195331;28;20056;-38
2022/12/14 04:08:58;;;;;;;0.35;0.20;;;;;;;;;;4183268;28;20049;-38
2022/12/14 04:20:38;;;;;;;0.40;0.40;;;;;;;;;;4191499;28;20078;-38
2022/12/14 04:22:55;;;;;;;0.35;0.30;;;;;;;;;;4195452;28;20479;-38
2022/12/14 04:27:45;;;;;;;0.50;0.30;;;;;;;;;;4179677;28;20057;-40
2022/12/14 04:29:55;;;;;;;0.50;0.30;;;;;;;;;;4177038;28;20053;-38
2022/12/14 04:32:19;;;;;;;0.50;0.45;;;;;;;;;;4191741;28;20086;-38
2022/12/14 04:34:23;;;;;;;0.47;0.40;;;;;;;;;;4193022;28;20044;-38
2022/12/14 04:36:47;;;;;;;0.35;0.30;;;;;;;;;;4180277;28;20500;-39
2022/12/14 04:38:53;;;;;;;0.52;0.45;;;;;;;;;;4197443;28;20044;-39
2022/12/14 04:40:57;;;;;;;0.60;0.40;;;;;;;;;;4183999;28;20056;-38
2022/12/14 04:43:00;;;;;;;0.30;0.30;;;;;;;;;;4207259;28;20102;-38
2022/12/14 04:45:06;;;;;;;0.52;0.40;;;;;;;;;;4180263;28;20052;-38
2022/12/14 04:47:10;;;;;;;0.30;0.25;;;;;;;;;;4193409;28;20060;-39
2022/12/14 04:49:15;;;;;;;0.32;0.30;;;;;;;;;;4187311;28;20045;-39
2022/12/14 04:51:23;;;;;;;0.32;0.32;;;;;;;;;;4197716;28;20403;-38
2022/12/14 04:53:25;;;;;;;0.45;0.30;;;;;;;;;;4197377;28;20169;-39
2022/12/14 04:55:33;;;;;;;0.40;0.40;;;;;;;;;;4179564;28;20473;-38
2022/12/14 04:57:50;;;;;;;0.50;0.40;;;;;;;;;;4197578;28;20048;-38
2022/12/14 04:59:53;;;;;;;0.40;0.32;;;;;;;;;;4179757;28;20401;-38
2022/12/14 05:02:36;;;;;;;0.32;0.30;;;;;;;;;;4179563;28;20416;-38
2022/12/14 05:04:56;;;;;;;0.73;0.55;;;;;;;;;;4178068;28;20098;-38
2022/12/14 05:07:17;;;;;;;0.40;0.40;;;;;;;;;;4210979;28;20118;-38
2022/12/14 05:09:28;;;;;;;0.80;0.77;;;;;;;;;;4179017;28;20127;-38
2022/12/14 05:11:46;;;;;;;0.65;0.40;;;;;;;;;;4197655;28;20053;-39
2022/12/14 05:13:49;;;;;;;0.30;0.30;;;;;;;;;;4183908;28;20056;-38
2022/12/14 05:15:52;;;;;;;0.22;0.20;;;;;;;;;;4205928;28;20071;-38
2022/12/14 05:17:54;;;;;;;0.50;0.30;;;;;;;;;;4179719;28;20519;-38
2022/12/14 05:19:55;;;;;;;0.40;0.40;;;;;;;;;;4179506;28;20056;-38
2022/12/14 05:21:58;;;;;;;0.35;0.30;;;;;;;;;;4197463;28;20102;-38
2022/12/14 05:24:01;;;;;;;0.28;0.28;;;;;;;;;;4169678;28;20052;-38
2022/12/14 05:26:02;;;;;;;0.30;0.30;;;;;;;;;;4208055;28;20052;-38
2022/12/14 05:28:03;;;;;;;0.35;0.20;;;;;;;;;;4182186;28;20056;-39
2022/12/14 05:30:05;;;;;;;0.30;0.20;;;;;;;;;;4197501;28;20055;-38
2022/12/14 05:32:08;;;;;;;0.77;0.40;;;;;;;;;;4179697;28;20053;-38
2022/12/14 05:34:09;;;;;;;0.82;0.30;;;;;;;;;;4179379;28;20574;-38
2022/12/14 05:36:11;;;;;;;0.68;0.40;;;;;;;;;;4197363;28;20067;-39
2022/12/14 05:38:12;;;;;;;0.43;0.30;;;;;;;;;;4196775;28;20553;-38
2022/12/14 05:40:13;;;;;;;0.60;0.30;;;;;;;;;;4196783;28;20110;-38
2022/12/14 05:42:15;;;;;;;0.95;0.43;;;;;;;;;;4197195;28;20068;-38
2022/12/14 05:44:16;;;;;;;0.80;0.40;;;;;;;;;;4196899;28;20056;-38
2022/12/14 05:46:18;;;;;;;0.43;0.30;;;;;;;;;;4212108;28;20056;-38
2022/12/14 05:48:19;;;;;;;0.90;0.30;;;;;;;;;;4178859;28;20465;-38
2022/12/14 05:50:20;;;;;;;0.88;0.40;;;;;;;;;;4205200;28;20048;-38
2022/12/14 05:52:25;;;;;;;0.50;0.43;;;;;;;;;;4202483;28;20065;-39
2022/12/14 05:54:26;;;;;;;0.43;0.40;;;;;;;;;;4178233;28;20490;-38
2022/12/14 05:56:27;;;;;;;0.73;0.45;;;;;;;;;;4197047;28;20061;-38
2022/12/14 05:58:28;;;;;;;0.45;0.30;;;;;;;;;;4203964;28;20048;-38
2022/12/14 06:00:30;;;;;;;0.40;0.35;;;;;;;;;;4208207;28;20110;-38
2022/12/14 06:02:31;;;;;;;0.55;0.40;;;;;;;;;;4194653;28;20052;-38
2022/12/14 06:04:33;;;;;;;0.40;0.40;;;;;;;;;;4194451;28;20060;-38
2022/12/14 06:06:34;;;;;;;0.45;0.30;;;;;;;;;;4194764;28;20055;-38
2022/12/14 06:08:37;;;;;;;0.73;0.30;;;;;;;;;;4193993;28;20134;-38
2022/12/14 06:10:39;;;;;;;0.73;0.50;;;;;;;;;;4176426;28;20486;-41
2022/12/14 06:12:40;;;;;;;1.13;0.50;;;;;;;;;;4176320;28;20110;-38
2022/12/14 06:14:41;;;;;;;0.52;0.43;;;;;;;;;;4194018;28;20082;-38
2022/12/14 06:16:44;;;;;;;0.32;0.30;;;;;;;;;;4194710;28;20064;-38
2022/12/14 06:18:50;;;;;;;1.00;0.50;;;;;;;;;;4194389;28;20070;-38
2022/12/14 06:20:52;;;;;;;0.55;0.40;;;;;;;;;;4199037;28;20060;-38
2022/12/14 06:22:54;;;;;;;0.50;0.40;;;;;;;;;;4201294;28;20400;-38
2022/12/14 06:24:55;;;;;;;0.95;0.40;;;;;;;;;;4201777;28;20048;-38
2022/12/14 06:26:56;;;;;;;0.73;0.40;;;;;;;;;;4194427;28;20091;-38
2022/12/14 06:28:57;;;;;;;1.45;0.35;;;;;;;;;;4194092;28;20530;-38
2022/12/14 06:30:59;;;;;;;0.60;0.40;;;;;;;;;;4194446;28;20056;-39
2022/12/14 06:33:00;;;;;;;0.60;0.50;;;;;;;;;;4194092;28;20056;-38
2022/12/14 06:35:02;;;;;;;1.08;0.40;;;;;;;;;;4194030;28;20125;-38
2022/12/14 06:37:03;;;;;;;0.80;0.43;;;;;;;;;;4193594;28;20512;-38
2022/12/14 06:39:10;;;;;;;0.80;0.47;;;;;;;;;;4193643;28;20052;-38
2022/12/14 06:41:11;;;;;;;0.50;0.40;;;;;;;;;;4176361;28;20065;-38
2022/12/14 06:43:12;;;;;;;0.70;0.30;;;;;;;;;;4204349;28;20107;-38
2022/12/14 06:45:14;;;;;;;1.00;0.50;;;;;;;;;;4196583;28;20506;-38
2022/12/14 06:47:15;;;;;;;1.63;0.52;;;;;;;;;;4197055;28;20056;-38
2022/12/14 06:49:16;;;;;;;0.60;0.43;;;;;;;;;;4203660;28;20060;-38
2022/12/14 06:51:18;;;;;;;0.30;0.30;;;;;;;;;;4176018;28;20430;-38
2022/12/14 06:53:19;;;;;;;1.42;0.40;;;;;;;;;;4193361;28;20118;-38
2022/12/14 06:55:21;;;;;;;0.63;0.50;;;;;;;;;;4207368;28;20548;-38
2022/12/14 06:57:23;;;;;;;0.90;0.77;;;;;;;;;;4193796;28;20061;-38
2022/12/14 06:59:24;;;;;;;0.52;0.35;;;;;;;;;;4193500;28;20052;-38
2022/12/14 07:01:26;;;;;;;1.25;0.50;;;;;;;;;;4193419;28;20057;-38
2022/12/14 07:03:27;;;;;;;1.17;0.35;;;;;;;;;;4194622;28;20053;-38
2022/12/14 07:05:29;;;;;;;2.38;0.60;;;;;;;;;;4205795;28;20118;-38
2022/12/14 07:07:34;;;;;;;2.78;0.50;;;;;;;;;;4193806;28;20056;-37
2022/12/14 07:09:35;;;;;;;0.50;0.50;;;;;;;;;;4192899;28;20052;-37
2022/12/14 07:11:36;;;;;;;2.60;0.50;;;;;;;;;;4193766;28;20060;-38
2022/12/14 07:13:38;;;;;;;3.08;0.65;;;;;;;;;;4193107;28;20110;-37
2022/12/14 07:15:39;;;;;;;4.05;1.17;;;;;;;;;;4193134;28;20052;-37
2022/12/14 07:17:41;;;;;;;2.90;0.73;;;;;;;;;;4193546;28;20535;-37
2022/12/14 07:19:42;;;;;;;3.92;0.73;;;;;;;;;;4175337;28;20195;-37
2022/12/14 07:21:44;;;;;;;3.22;0.70;;;;;;;;;;4193520;28;20102;-37
2022/12/14 07:23:46;;;;;;;1.05;0.60;;;;;;;;;;4192875;28;20057;-37
2022/12/14 07:25:47;;;;;;;3.40;0.88;;;;;;;;;;4192663;28;20056;-37
2022/12/14 07:27:50;;;;;;;3.10;0.88;;;;;;;;;;4196872;28;20048;-38
2022/12/14 07:29:51;;;;;;;2.03;0.82;;;;;;;;;;4203645;28;20112;-39
2022/12/14 07:31:52;;;;;;;5.50;0.80;;;;;;;;;;4195292;28;20052;-38
2022/12/14 07:33:56;;;;;;;3.45;0.90;;;;;;;;;;4192202;28;20052;-38
2022/12/14 07:36:05;;;;;;;3.20;0.70;;;;;;;;;;4178570;28;20056;-38
2022/12/14 07:38:07;;;;;;;2.17;0.68;;;;;;;;;;4200066;28;20412;-40
2022/12/14 07:40:08;;;;;;;4.10;0.80;;;;;;;;;;4170598;28;20110;-38
2022/12/14 07:42:11;;;;;;;2.28;0.70;;;;;;;;;;4198932;28;20076;-38
2022/12/14 07:44:16;;;;;;;3.33;0.90;;;;;;;;;;4183953;28;20105;-39
2022/12/14 07:46:19;;;;;;;1.33;0.73;;;;;;;;;;4197288;28;20059;-39
2022/12/14 07:48:21;;;;;;;5.78;1.10;;;;;;;;;;4181339;28;20047;-38
2022/12/14 07:50:22;;;;;;;4.15;0.90;;;;;;;;;;4167604;28;21233;-39
2022/12/14 07:52:24;;;;;;;1.23;0.65;;;;;;;;;;4193094;28;21582;-39
2022/12/14 07:54:25;;;;;;;2.20;0.90;;;;;;;;;;4193207;28;20047;-39
2022/12/14 07:56:33;;;;;;;5.00;0.90;;;;;;;;;;4196974;28;20056;-38
2022/12/14 07:58:35;;;;;;;2.83;0.90;;;;;;;;;;4190408;28;20052;-38
2022/12/14 08:00:36;;;;;;;1.45;0.80;;;;;;;;;;4185040;28;20433;-38
2022/12/14 08:02:37;;;;;;;4.93;0.90;;;;;;;;;;4182270;28;20471;-39
2022/12/14 08:04:39;;;;;;;5.30;0.80;;;;;;;;;;4188604;28;20056;-39
2022/12/14 08:06:40;;;;;;;3.28;0.90;;;;;;;;;;4194132;28;20746;-39
2022/12/14 08:08:42;;;;;;;3.55;0.70;;;;;;;;;;4189640;28;20056;-39
2022/12/14 08:10:47;;;;;;;2.97;0.77;;;;;;;;;;4178807;28;20130;-39
2022/12/14 08:12:49;;;;;;;3.22;0.63;;;;;;;;;;4174791;28;20053;-38
2022/12/14 08:14:50;;;;;;;3.17;0.70;;;;;;;;;;4192980;28;20109;-38
2022/12/14 08:16:52;;;;;;;5.47;0.95;;;;;;;;;;4173144;28;20049;-39
2022/12/14 08:18:54;;;;;;;2.22;0.77;;;;;;;;;;4188948;28;20116;-38
2022/12/14 08:20:55;;;;;;;7.20;0.77;;;;;;;;;;4194225;28;20113;-39
2022/12/14 08:22:57;;;;;;;3.47;1.00;;;;;;;;;;4202178;28;20093;-39
2022/12/14 08:24:58;;;;;;;3.65;1.13;;;;;;;;;;4196001;28;20055;-39
2022/12/14 08:26:59;;;;;;;2.58;1.10;;;;;;;;;;4174888;28;20058;-38
2022/12/14 08:29:01;;;;;;;3.42;0.70;;;;;;;;;;4185840;28;20408;-39
2022/12/14 08:31:07;;;;;;;3.10;0.90;;;;;;;;;;4190658;28;20915;-40
2022/12/14 08:33:09;;;;;;;1.85;0.93;;;;;;;;;;4193428;28;20051;-38
2022/12/14 08:35:10;;;;;;;2.25;0.75;;;;;;;;;;4192394;28;20091;-38
2022/12/14 08:37:11;;;;;;;4.25;0.93;;;;;;;;;;4190182;28;20496;-38
2022/12/14 08:39:13;;;;;;;2.90;0.65;;;;;;;;;;4187457;28;20579;-38
2022/12/14 08:41:14;;;;;;;2.78;0.60;;;;;;;;;;4194278;28;20056;-38
2022/12/14 08:43:27;;;;;;;1.38;0.80;;;;;;;;;;4177974;28;20052;-39
2022/12/14 08:45:28;;;;;;;1.98;0.70;;;;;;;;;;4193698;28;20544;-38
2022/12/14 08:47:29;;;;;;;3.90;1.00;;;;;;;;;;4192933;28;20193;-39
2022/12/14 08:49:30;;;;;;;2.08;0.80;;;;;;;;;;4197421;28;20102;-38
2022/12/14 08:51:36;;;;;;;3.97;1.10;;;;;;;;;;4198162;28;20052;-39
2022/12/14 08:53:37;;;;;;;2.95;0.85;;;;;;;;;;4196620;28;20519;-39
2022/12/14 08:55:38;;;;;;;2.60;0.60;;;;;;;;;;4197595;28;20048;-39
2022/12/14 08:57:40;;;;;;;2.45;1.10;;;;;;;;;;4198775;28;20411;-38
2022/12/14 08:59:41;;;;;;;2.88;0.77;;;;;;;;;;4195246;28;20141;-39
2022/12/14 09:01:43;;;;;;;3.60;1.20;;;;;;;;;;4148932;28;20054;-39
2022/12/14 09:03:45;;;;;;;3.70;1.10;;;;;;;;;;4191062;28;20090;-39
2022/12/14 09:05:47;;;;;;;1.33;0.85;;;;;;;;;;4174903;28;20186;-38
2022/12/14 09:07:48;;;;;;;3.85;0.80;;;;;;;;;;4196170;28;20125;-38
2022/12/14 09:09:49;;;;;;;2.25;0.80;;;;;;;;;;4176504;28;20053;-38
2022/12/14 09:11:51;;;;;;;5.18;1.30;;;;;;;;;;4194521;28;21737;-40
2022/12/14 09:13:53;;;;;;;2.45;0.98;;;;;;;;;;4194300;28;20149;-38
2022/12/14 09:16:00;;;;;;;1.55;0.80;;;;;;;;;;4195921;28;20529;-39
2022/12/14 09:18:02;;;;;;;2.22;0.70;;;;;;;;;;4179466;28;20071;-38
2022/12/14 09:20:04;;;;;;;3.55;0.90;;;;;;;;;;4198435;28;20396;-38
2022/12/14 09:22:05;;;;;;;1.48;0.63;;;;;;;;;;4198364;28;20052;-39
2022/12/14 09:24:08;;;;;;;1.23;0.60;;;;;;;;;;4176139;28;20056;-38
2022/12/14 09:26:14;;;;;;;1.88;0.70;;;;;;;;;;4162560;28;20189;-39
2022/12/14 09:28:15;;;;;;;1.17;0.80;;;;;;;;;;4198326;28;20074;-39
2022/12/14 09:30:16;;;;;;;3.03;0.80;;;;;;;;;;4196014;28;20052;-39
2022/12/14 09:32:18;;;;;;;1.50;0.75;;;;;;;;;;4195297;28;20345;-38
2022/12/14 09:34:20;;;;;;;2.35;0.77;;;;;;;;;;4196647;28;20059;-38
2022/12/14 09:36:24;;;;;;;1.52;0.85;;;;;;;;;;4200128;28;20109;-38
2022/12/14 09:38:25;;;;;;;0.82;0.70;;;;;;;;;;4203007;28;20085;-38
2022/12/14 09:40:29;;;;;;;1.55;0.80;;;;;;;;;;4180002;28;20049;-39
2022/12/14 09:42:55;;;;;;;1.45;1.00;;;;;;;;;;4196738;28;20055;-39
2022/12/14 09:45:02;;;;;;;1.90;1.00;;;;;;;;;;4184245;28;21370;-39
2022/12/14 09:47:16;;;;;;;1.13;0.82;;;;;;;;;;4179187;28;20712;-39
2022/12/14 09:49:25;;;;;;;1.70;0.73;;;;;;;;;;4200161;28;20056;-39
2022/12/14 09:51:33;;;;;;;2.40;1.17;;;;;;;;;;4179947;28;20121;-39
2022/12/14 09:53:35;;;;;;;3.58;0.98;;;;;;;;;;4180102;28;20061;-39
2022/12/14 09:55:41;;;;;;;2.33;1.00;;;;;;;;;;4180093;28;20772;-39
2022/12/14 09:57:43;;;;;;;2.13;1.10;;;;;;;;;;4183379;28;20556;-39
2022/12/14 09:59:45;;;;;;;2.90;0.95;;;;;;;;;;4178211;28;20129;-39
2022/12/14 10:01:52;;;;;;;2.83;0.93;;;;;;;;;;4194639;28;20150;-39
2022/12/14 10:04:25;;;;;;;2.20;1.02;;;;;;;;;;4177686;28;20053;-38
2022/12/14 10:06:35;;;;;;;1.67;1.05;;;;;;;;;;4175990;28;20056;-39
2022/12/14 10:09:02;;;;;;;1.83;1.00;;;;;;;;;;4198188;28;20106;-39
2022/12/14 10:11:31;;;;;;;2.97;1.20;;;;;;;;;;4175275;28;20132;-39
2022/12/14 10:13:39;;;;;;;2.20;0.80;;;;;;;;;;4171239;28;20768;-38
2022/12/14 10:16:14;;;;;;;2.70;0.95;;;;;;;;;;4172795;28;20105;-38
2022/12/14 10:18:26;;;;;;;1.85;0.80;;;;;;;;;;4192884;28;20052;-39
2022/12/14 10:20:36;;;;;;;1.92;0.90;;;;;;;;;;4203022;28;20048;-39
2022/12/14 10:22:41;;;;;;;1.55;0.75;;;;;;;;;;4198904;28;20064;-39
2022/12/14 10:24:46;;;;;;;0.85;0.63;;;;;;;;;;4177978;28;20695;-39
2022/12/14 10:26:53;;;;;;;0.85;0.75;;;;;;;;;;4180665;28;20570;-39
2022/12/14 10:28:56;;;;;;;1.15;0.95;;;;;;;;;;4199490;28;20732;-38
2022/12/14 10:30:59;;;;;;;0.98;0.88;;;;;;;;;;4198481;28;20082;-39
2022/12/14 10:33:28;;;;;;;1.50;0.70;;;;;;;;;;4195663;28;20097;-39
2022/12/14 10:35:52;;;;;;;2.05;0.90;;;;;;;;;;4198013;28;20055;-39
2022/12/14 10:38:05;;;;;;;1.48;1.00;;;;;;;;;;4196271;28;20056;-39
2022/12/14 10:40:09;;;;;;;2.78;0.95;;;;;;;;;;4178051;28;20053;-39
2022/12/14 10:42:18;;;;;;;1.05;0.73;;;;;;;;;;4198153;28;20440;-39
2022/12/14 10:44:29;;;;;;;1.23;0.85;;;;;;;;;;4181851;28;20060;-39
2022/12/14 10:46:57;;;;;;;0.90;0.73;;;;;;;;;;4198901;28;20055;-38
2022/12/14 10:49:04;;;;;;;0.75;0.60;;;;;;;;;;4178142;28;20477;-40
2022/12/14 10:51:17;;;;;;;1.17;0.75;;;;;;;;;;4182748;28;20052;-39
2022/12/14 10:53:23;;;;;;;0.70;0.70;;;;;;;;;;4196236;28;20056;-39
2022/12/14 10:55:32;;;;;;;1.67;0.75;;;;;;;;;;4202109;28;20060;-38
2022/12/14 10:57:34;;;;;;;1.52;0.70;;;;;;;;;;4180848;28;20056;-37
2022/12/14 10:59:36;;;;;;;1.85;0.77;;;;;;;;;;4198334;28;20403;-37
2022/12/14 11:01:38;;;;;;;1.05;0.50;;;;;;;;;;4204279;28;20059;-38
2022/12/14 11:03:41;;;;;;;1.00;0.73;;;;;;;;;;4180239;28;20915;-38
2022/12/14 11:05:54;;;;;;;1.45;0.75;;;;;;;;;;4200008;28;20075;-38
2022/12/14 11:07:56;;;;;;;0.80;0.60;;;;;;;;;;4182078;28;20102;-38
2022/12/14 11:10:21;;;;;;;1.35;0.70;;;;;;;;;;4174968;28;20783;-38
2022/12/14 11:12:25;;;;;;;0.90;0.75;;;;;;;;;;4186785;28;20075;-38
2022/12/14 11:14:27;;;;;;;1.02;0.60;;;;;;;;;;4159713;28;20127;-38
2022/12/14 11:16:37;;;;;;;0.73;0.60;;;;;;;;;;4194002;28;20057;-38
2022/12/14 11:18:39;;;;;;;2.88;0.73;;;;;;;;;;4179796;28;20103;-38
2022/12/14 11:21:00;;;;;;;3.85;0.80;;;;;;;;;;4169041;28;20103;-38
2022/12/14 11:23:17;;;;;;;0.90;0.60;;;;;;;;;;4176187;28;20056;-38
2022/12/14 11:25:39;;;;;;;2.38;0.68;;;;;;;;;;4200321;28;20129;-38
2022/12/14 11:27:40;;;;;;;0.98;0.60;;;;;;;;;;4197041;28;20166;-38
2022/12/14 11:29:44;;;;;;;1.58;0.68;;;;;;;;;;4199563;28;20054;-38
2022/12/14 11:31:47;;;;;;;2.30;1.05;;;;;;;;;;4186325;28;20118;-37
2022/12/14 11:33:51;;;;;;;1.02;0.80;;;;;;;;;;4172080;28;20171;-38
2022/12/14 11:35:52;;;;;;;3.45;0.82;;;;;;;;;;4189319;28;20060;-39
2022/12/14 11:37:58;;;;;;;2.25;1.27;;;;;;;;;;4200961;28;20048;-37
2022/12/14 11:40:02;;;;;;;3.47;0.80;;;;;;;;;;4177129;28;20570;-37
2022/12/14 11:42:03;;;;;;;2.33;0.60;;;;;;;;;;4181410;28;20060;-40
2022/12/14 11:44:26;;;;;;;3.22;0.70;;;;;;;;;;4194587;28;20059;-40
2022/12/14 11:46:51;;;;;;;5.18;1.02;;;;;;;;;;4179295;28;20052;-39
2022/12/14 11:48:52;;;;;;;1.35;0.75;;;;;;;;;;4190477;28;20060;-37
2022/12/14 11:51:08;;;;;;;4.57;0.70;;;;;;;;;;4200619;28;20624;-37
2022/12/14 11:53:11;;;;;;;2.15;0.80;;;;;;;;;;4184690;28;20121;-39
2022/12/14 11:55:17;;;;;;;1.63;0.77;;;;;;;;;;4200396;28;20047;-39
2022/12/14 11:57:28;;;;;;;4.05;0.70;;;;;;;;;;4179675;28;20071;-39
2022/12/14 11:59:36;;;;;;;3.30;0.80;;;;;;;;;;4182152;28;20120;-34
2022/12/14 12:01:38;;;;;;;4.47;1.10;;;;;;;;;;4199878;28;20506;-41
2022/12/14 12:03:43;;;;;;;1.63;0.80;;;;;;;;;;4198028;28;20078;-37
2022/12/14 12:05:45;;;;;;;1.77;1.00;;;;;;;;;;4167222;28;20060;-37
2022/12/14 12:07:49;;;;;;;4.65;1.10;;;;;;;;;;4183253;28;20408;-35
2022/12/14 12:09:50;;;;;;;2.85;1.27;;;;;;;;;;4195764;28;20388;-37
2022/12/14 12:11:52;;;;;;;1.85;0.93;;;;;;;;;;4197992;28;20625;-37
2022/12/14 12:14:15;;;;;;;1.65;0.73;;;;;;;;;;4172847;28;20138;-39
2022/12/14 12:16:20;;;;;;;1.70;0.80;;;;;;;;;;4198666;28;20051;-40
2022/12/14 12:18:26;;;;;;;5.05;1.48;;;;;;;;;;4198387;28;20071;-36
2022/12/14 12:20:49;;;;;;;4.05;0.60;;;;;;;;;;4201315;28;20049;-37
2022/12/14 12:22:55;;;;;;;3.78;1.13;;;;;;;;;;4190164;28;20117;-36
2022/12/14 12:25:00;;;;;;;3.55;1.05;;;;;;;;;;4185806;28;20590;-35
2022/12/14 12:27:10;;;;;;;4.40;1.08;;;;;;;;;;4200945;28;20109;-36
2022/12/14 12:29:16;;;;;;;4.80;1.27;;;;;;;;;;4177862;28;20114;-38
2022/12/14 12:31:23;;;;;;;1.38;0.80;;;;;;;;;;4200233;28;20049;-35
2022/12/14 12:33:31;;;;;;;4.45;0.90;;;;;;;;;;4202068;28;20060;-34
2022/12/14 12:35:44;;;;;;;3.80;1.00;;;;;;;;;;4204431;28;20380;-36
2022/12/14 12:37:59;;;;;;;2.13;0.90;;;;;;;;;;4197473;28;20052;-36
2022/12/14 12:40:08;;;;;;;2.60;0.80;;;;;;;;;;4180391;28;20044;-35
2022/12/14 12:42:28;;;;;;;4.13;1.40;;;;;;;;;;4185481;28;20094;-34
2022/12/14 12:44:53;;;;;;;1.58;0.80;;;;;;;;;;4184574;28;20501;-34
2022/12/14 12:47:16;;;;;;;1.48;0.77;;;;;;;;;;4204464;28;20071;-34
2022/12/14 12:49:17;;;;;;;3.90;1.30;;;;;;;;;;4199300;28;20113;-33
2022/12/14 12:51:24;;;;;;;2.50;1.10;;;;;;;;;;4196403;28;20052;-34